Time;durP1;ratioP1;P1;durP2;ratioP2;P2;SDS_P1;SDS_P2;PMS_P1;PMS_P2;Temp;Humidity;BMP_temperature;BMP_pressure;BME280_temperature;BME280_humidity;BME280_pressure;Samples;Min_cycle;Max_cycle;Signal;HPM_P1;HPM_P2
2022/10/11 00:05:27;;;;;;;7.10;4.20;;;;;;;22.97;54.30;100862.91;20671870;28;20493;-77
2022/10/11 00:15:28;;;;;;;7.60;4.32;;;;;;;22.97;54.28;100852.34;20668235;28;20145;-77
2022/10/11 00:25:28;;;;;;;8.00;4.40;;;;;;;22.96;54.33;100848.03;20661429;28;20044;-76
2022/10/11 00:35:28;;;;;;;7.50;3.92;;;;;;;22.96;54.40;100850.66;20672547;28;20048;-75
2022/10/11 00:45:29;;;;;;;7.38;4.25;;;;;;;22.94;54.28;100849.97;20668044;28;20043;-76
2022/10/11 00:55:36;;;;;;;5.90;3.45;;;;;;;22.92;54.34;100833.38;20662329;28;20054;-76
2022/10/11 01:05:38;;;;;;;5.88;3.75;;;;;;;22.90;54.47;100838.81;20660558;28;20046;-75
2022/10/11 01:15:53;;;;;;;5.63;3.88;;;;;;;22.89;54.34;100829.19;20663737;28;20045;-75
2022/10/11 01:26:02;;;;;;;7.03;3.85;;;;;;;22.88;54.71;100840.72;20658766;28;20445;-76
2022/10/11 01:36:55;;;;;;;6.65;3.40;;;;;;;22.87;54.63;100833.75;20654241;28;20163;-76
2022/10/11 01:46:55;;;;;;;6.57;3.58;;;;;;;22.85;54.62;100825.94;20641690;28;20112;-74
2022/10/11 01:57:44;;;;;;;5.05;3.55;;;;;;;22.83;54.83;100813.84;20650697;28;20046;-75
2022/10/11 02:07:58;;;;;;;6.05;3.60;;;;;;;22.81;54.95;100813.09;20633579;28;20229;-75
2022/10/11 02:18:05;;;;;;;4.88;3.55;;;;;;;22.80;54.95;100811.41;20650830;28;20046;-76
2022/10/11 02:28:10;;;;;;;5.28;3.50;;;;;;;22.77;55.12;100806.38;20648390;28;20054;-75
2022/10/11 02:38:22;;;;;;;5.57;3.33;;;;;;;22.77;54.97;100819.59;20650118;28;20042;-75
2022/10/11 02:48:26;;;;;;;5.10;3.20;;;;;;;22.75;55.08;100811.75;20655549;28;20050;-76
2022/10/11 02:58:26;;;;;;;4.70;3.58;;;;;;;22.74;54.97;100828.59;20655260;28;20496;-75
2022/10/11 03:08:27;;;;;;;4.15;3.10;;;;;;;22.72;54.84;100827.84;20652319;28;20405;-76
2022/10/11 03:18:27;;;;;;;5.60;3.30;;;;;;;22.71;55.10;100828.81;20657440;28;20043;-75
2022/10/11 03:28:28;;;;;;;4.22;3.20;;;;;;;22.70;55.31;100827.97;20647588;28;20045;-77
2022/10/11 03:38:28;;;;;;;5.95;3.17;;;;;;;22.67;55.28;100836.13;20657022;28;20054;-76
2022/10/11 03:48:29;;;;;;;4.43;3.10;;;;;;;22.68;55.18;100836.97;20666019;28;20045;-75
2022/10/11 03:58:29;;;;;;;5.43;3.20;;;;;;;22.69;55.91;100841.28;20665100;28;20068;-76
2022/10/11 04:08:29;;;;;;;5.28;2.97;;;;;;;22.70;54.92;100845.59;20653375;28;20129;-71
2022/10/11 04:18:30;;;;;;;7.20;3.38;;;;;;;22.70;55.70;100857.03;20659474;28;20419;-70
2022/10/11 04:28:30;;;;;;;8.15;3.17;;;;;;;22.75;56.69;100851.38;20657624;28;20041;-76
2022/10/11 04:38:31;;;;;;;14.05;4.30;;;;;;;22.79;58.57;100863.38;20645568;28;20045;-69
2022/10/11 04:48:31;;;;;;;20.52;5.70;;;;;;;22.81;58.14;100840.34;20651754;28;20050;-70
2022/10/11 04:58:33;;;;;;;21.25;4.95;;;;;;;22.83;57.99;100848.97;20653068;28;20057;-71
2022/10/11 05:08:34;;;;;;;14.80;5.53;;;;;;;22.64;53.73;100851.34;20667189;28;20088;-71
2022/10/11 05:18:34;;;;;;;14.23;5.25;;;;;;;22.65;55.60;100856.50;20672982;28;21844;-72
2022/10/11 05:28:35;;;;;;;13.15;5.75;;;;;;;22.70;56.41;100866.72;20656156;28;20037;-68
2022/10/11 05:38:36;;;;;;;16.75;6.18;;;;;;;22.74;57.35;100867.31;20655169;28;20053;-72
2022/10/11 05:48:37;;;;;;;12.68;5.60;;;;;;;22.76;58.34;100882.09;20623517;28;20066;-72
2022/10/11 05:58:38;;;;;;;13.38;5.25;;;;;;;22.78;58.23;100890.75;20647132;28;20062;-71
2022/10/11 06:08:39;;;;;;;11.80;4.20;;;;;;;22.78;58.11;100903.13;20639923;28;20145;-72
2022/10/11 06:18:39;;;;;;;9.15;4.28;;;;;;;22.79;58.04;100918.84;20654302;28;20049;-71
2022/10/11 06:28:40;;;;;;;7.83;4.00;;;;;;;22.79;57.67;100915.34;20649019;28;20041;-69
2022/10/11 06:38:40;;;;;;;9.75;4.20;;;;;;;22.80;57.42;100917.03;20646641;28;20310;-73
2022/10/11 06:48:42;;;;;;;10.73;4.20;;;;;;;22.74;54.78;100914.84;20681351;28;20139;-74
2022/10/11 06:58:42;;;;;;;5.67;4.00;;;;;;;22.78;56.75;100917.16;20667242;28;20074;-76
2022/10/11 07:08:43;;;;;;;6.68;3.20;;;;;;;22.83;56.90;100927.38;20652870;28;20115;-76
2022/10/11 07:19:04;;;;;;;6.80;3.88;;;;;;;22.82;56.87;100942.34;20673563;28;20120;-76
2022/10/11 07:29:07;;;;;;;6.50;3.33;;;;;;;22.84;56.71;100937.81;20683852;28;20120;-75
2022/10/11 07:39:08;;;;;;;9.13;4.30;;;;;;;22.87;56.82;100939.38;20672156;28;20042;-75
2022/10/11 07:49:08;;;;;;;7.10;3.92;;;;;;;22.89;56.74;100934.81;20673428;28;20050;-76
2022/10/11 07:59:10;;;;;;;5.65;4.10;;;;;;;22.92;56.80;100944.31;20687418;28;20052;-75
2022/10/11 08:09:11;;;;;;;7.30;4.20;;;;;;;22.93;56.64;100941.53;20683416;28;20046;-75
2022/10/11 08:19:12;;;;;;;5.30;3.67;;;;;;;22.95;56.49;100950.19;20700078;28;20105;-75
2022/10/11 08:29:13;;;;;;;4.53;3.55;;;;;;;22.97;56.52;100936.84;20691626;28;21295;-76
2022/10/11 08:39:13;;;;;;;8.13;3.95;;;;;;;22.98;56.59;100947.31;20699884;28;20057;-76
2022/10/11 08:49:25;;;;;;;6.70;4.45;;;;;;;23.01;56.80;100948.91;20674098;28;20034;-76
2022/10/11 08:59:40;;;;;;;5.60;4.13;;;;;;;23.07;56.65;100944.91;20683109;28;20039;-75
2022/10/11 09:09:59;;;;;;;5.63;4.20;;;;;;;23.10;56.60;100942.06;20683538;28;20038;-76
2022/10/11 09:20:11;;;;;;;6.32;4.57;;;;;;;23.15;56.55;100937.25;20668283;28;20123;-76
2022/10/11 09:30:15;;;;;;;6.35;4.57;;;;;;;23.21;56.58;100955.31;20668522;28;20116;-75
2022/10/11 09:40:49;;;;;;;7.20;4.43;;;;;;;23.26;56.51;100947.03;20652623;28;20042;-75
2022/10/11 09:50:51;;;;;;;8.60;4.43;;;;;;;23.33;56.56;100940.31;20688020;28;20108;-77
2022/10/11 10:01:07;;;;;;;6.15;4.60;;;;;;;23.40;56.78;100945.94;20682359;28;20073;-76
2022/10/11 10:11:10;;;;;;;6.32;4.40;;;;;;;23.46;56.63;100946.31;20673075;28;20042;-75
2022/10/11 10:21:14;;;;;;;6.75;4.78;;;;;;;23.54;56.50;100931.66;20690049;28;20057;-74
2022/10/11 10:31:28;;;;;;;6.50;4.95;;;;;;;23.61;56.34;100925.75;20686426;28;20141;-75
2022/10/11 10:41:28;;;;;;;6.15;5.05;;;;;;;23.70;56.35;100928.63;20665984;28;20774;-75
2022/10/11 10:51:34;;;;;;;8.30;5.55;;;;;;;23.70;56.32;100924.16;20688712;28;20030;-75
2022/10/11 11:01:51;;;;;;;6.80;5.43;;;;;;;23.70;56.03;100915.41;20677430;28;20046;-76
2022/10/11 11:12:03;;;;;;;8.00;5.65;;;;;;;23.71;55.96;100911.81;20704228;28;20049;-76
2022/10/11 11:22:36;;;;;;;8.80;5.57;;;;;;;23.77;56.11;100914.78;20661344;28;20042;-76
2022/10/11 11:32:50;;;;;;;7.00;5.70;;;;;;;23.80;55.80;100903.13;20689254;28;20056;-78
2022/10/11 11:42:55;;;;;;;9.45;6.25;;;;;;;23.83;55.87;100906.38;20667816;28;20053;-76
2022/10/11 11:53:03;;;;;;;10.77;6.45;;;;;;;23.88;55.16;100898.06;20669348;28;20137;-78
2022/10/11 12:03:12;;;;;;;8.32;6.55;;;;;;;23.91;55.46;100892.53;20656156;28;20042;-73
2022/10/11 12:13:27;;;;;;;10.40;7.20;;;;;;;24.02;55.34;100896.97;20666736;28;20133;-71
2022/10/11 12:23:27;;;;;;;10.73;8.48;;;;;;;24.11;54.96;100877.69;20654942;28;20042;-72
2022/10/11 12:33:31;;;;;;;11.75;8.00;;;;;;;24.16;54.40;100881.75;20668070;28;20069;-73
2022/10/11 12:43:53;;;;;;;12.52;8.77;;;;;;;24.20;54.32;100880.56;20674463;28;20046;-79
2022/10/11 12:53:56;;;;;;;11.98;8.35;;;;;;;24.26;53.60;100872.94;20677708;28;20123;-76
2022/10/11 13:04:09;;;;;;;12.95;8.80;;;;;;;24.32;53.60;100863.66;20658115;28;20056;-76
2022/10/11 13:14:16;;;;;;;15.43;8.82;;;;;;;24.38;53.25;100864.97;20640418;28;20530;-75
2022/10/11 13:24:18;;;;;;;15.73;8.30;;;;;;;24.33;44.94;100862.69;20661533;28;20046;-75
2022/10/11 13:34:18;;;;;;;16.08;8.10;;;;;;;23.98;43.36;100867.28;20651785;28;20053;-77
2022/10/11 13:44:20;;;;;;;12.38;7.68;;;;;;;23.81;43.47;100863.34;20667488;28;20042;-73
2022/10/11 13:54:20;;;;;;;14.27;8.75;;;;;;;23.90;47.55;100869.69;20663873;28;20639;-72
2022/10/11 14:04:21;;;;;;;13.10;8.93;;;;;;;23.88;49.06;100871.63;20677240;28;20042;-73
2022/10/11 14:14:33;;;;;;;10.68;8.77;;;;;;;23.87;49.67;100874.38;20681528;28;20046;-73
2022/10/11 14:24:33;;;;;;;12.05;8.32;;;;;;;23.79;50.16;100872.34;20672040;28;20045;-74
2022/10/11 14:34:34;;;;;;;14.25;9.00;;;;;;;23.78;50.80;100882.09;20666334;28;20050;-73
2022/10/11 14:44:37;;;;;;;16.95;9.40;;;;;;;23.79;52.06;100878.50;20656802;28;20048;-72
2022/10/11 14:54:40;;;;;;;18.30;9.50;;;;;;;23.81;52.62;100873.06;20660532;28;20436;-76
2022/10/11 15:04:40;;;;;;;12.98;8.85;;;;;;;23.83;53.15;100881.72;20676083;28;20128;-76
2022/10/11 15:14:41;;;;;;;12.98;8.85;;;;;;;23.83;53.30;100877.28;20693977;28;20076;-77
2022/10/11 15:24:41;;;;;;;10.90;8.77;;;;;;;23.83;53.46;100889.66;20648214;28;20092;-76
2022/10/11 15:34:42;;;;;;;13.00;8.07;;;;;;;23.80;52.59;100889.91;20641371;28;20050;-75
2022/10/11 15:44:42;;;;;;;11.95;7.70;;;;;;;23.77;53.29;100903.38;20667540;28;20456;-76
2022/10/11 15:54:42;;;;;;;15.07;8.48;;;;;;;23.66;52.22;100899.78;20649150;28;20046;-74
2022/10/11 16:04:43;;;;;;;14.30;8.30;;;;;;;23.62;53.20;100906.28;20679995;28;20038;-76
2022/10/11 16:14:43;;;;;;;12.45;7.93;;;;;;;23.62;53.20;100919.50;20684134;28;20054;-76
2022/10/11 16:24:44;;;;;;;11.52;7.78;;;;;;;23.61;53.48;100922.28;20685717;28;20125;-78
2022/10/11 16:34:44;;;;;;;18.00;8.05;;;;;;;23.58;54.08;100931.31;20660174;28;20057;-77
2022/10/11 16:44:45;;;;;;;19.40;8.50;;;;;;;23.60;54.84;100937.28;20693883;28;20094;-78
2022/10/11 16:54:46;;;;;;;12.88;7.70;;;;;;;23.60;54.94;100953.16;20699724;28;20523;-77
2022/10/11 17:04:49;;;;;;;17.57;8.17;;;;;;;23.59;54.99;100959.38;20680890;28;20136;-78
2022/10/11 17:14:50;;;;;;;12.27;7.55;;;;;;;23.58;55.25;100963.03;20668358;28;20125;-72
2022/10/11 17:24:50;;;;;;;14.77;7.93;;;;;;;23.58;55.52;100972.75;20670105;28;20048;-72
2022/10/11 17:34:52;;;;;;;12.18;7.50;;;;;;;23.54;55.87;100974.78;20671228;28;20124;-74
2022/10/11 17:44:53;;;;;;;13.75;7.80;;;;;;;23.53;55.76;100999.53;20657746;28;20049;-77
2022/10/11 17:54:53;;;;;;;12.70;7.95;;;;;;;23.50;56.74;100984.75;20653948;28;20477;-73
2022/10/11 18:04:53;;;;;;;15.00;8.80;;;;;;;23.50;56.78;100994.50;20664712;28;20081;-73
2022/10/11 18:14:54;;;;;;;21.98;8.02;;;;;;;23.48;56.43;100989.31;20693906;28;20105;-75
2022/10/11 18:24:54;;;;;;;12.45;8.00;;;;;;;23.49;56.63;100990.16;20664434;28;20046;-75
2022/10/11 18:34:58;;;;;;;11.00;7.35;;;;;;;23.45;56.64;101001.94;20664772;28;21198;-74
2022/10/11 18:44:58;;;;;;;15.55;8.27;;;;;;;23.42;56.33;101003.00;20637931;28;20516;-74
2022/10/11 18:55:01;;;;;;;16.38;8.18;;;;;;;23.41;56.26;101000.47;20625934;28;20080;-75
2022/10/11 19:05:02;;;;;;;15.70;8.07;;;;;;;23.39;55.86;100991.81;20655919;28;20058;-74
2022/10/11 19:15:02;;;;;;;14.95;8.75;;;;;;;23.35;56.15;100996.50;20664608;28;20096;-74
2022/10/11 19:25:03;;;;;;;19.00;8.90;;;;;;;23.32;56.13;100992.28;20647154;28;20504;-74
2022/10/11 19:35:04;;;;;;;13.95;8.63;;;;;;;23.31;55.85;101003.84;20661370;28;20288;-76
2022/10/11 19:45:05;;;;;;;12.73;8.88;;;;;;;23.30;55.70;101007.44;20661145;28;20119;-76
2022/10/11 19:55:06;;;;;;;14.35;9.40;;;;;;;23.29;55.91;101007.53;20649354;28;20041;-75
2022/10/11 20:05:06;;;;;;;12.73;9.20;;;;;;;23.26;56.18;101010.44;20673572;28;20516;-77
2022/10/11 20:15:07;;;;;;;12.55;9.15;;;;;;;23.25;55.76;101022.78;20661372;28;20362;-76
2022/10/11 20:25:09;;;;;;;12.35;9.10;;;;;;;23.24;55.88;101022.91;20660845;28;20042;-77
2022/10/11 20:35:09;;;;;;;11.97;8.40;;;;;;;23.22;55.69;101023.03;20668777;28;20056;-77
2022/10/11 20:45:10;;;;;;;13.75;8.82;;;;;;;23.23;55.77;101037.06;20679315;28;20034;-77
2022/10/11 20:55:10;;;;;;;13.35;9.57;;;;;;;23.21;55.99;101031.09;20660563;28;20046;-75
2022/10/11 21:05:10;;;;;;;13.18;9.40;;;;;;;23.14;55.75;101026.25;20651063;28;20045;-76
2022/10/11 21:15:11;;;;;;;15.75;9.57;;;;;;;23.19;55.55;101033.81;20626914;28;1079385;-76
2022/10/11 21:25:11;;;;;;;15.20;9.27;;;;;;;23.17;55.52;101028.66;20659218;28;20053;-77
2022/10/11 21:35:11;;;;;;;11.60;8.60;;;;;;;23.18;55.73;101033.00;20662293;28;20642;-77
2022/10/11 21:45:12;;;;;;;14.10;8.93;;;;;;;23.17;55.77;101036.59;20654461;28;20042;-77
2022/10/11 21:55:12;;;;;;;11.20;8.55;;;;;;;23.17;56.10;101035.75;20665001;28;20050;-77
2022/10/11 22:05:13;;;;;;;9.60;8.35;;;;;;;23.16;55.84;101045.47;20640428;28;20049;-74
2022/10/11 22:15:13;;;;;;;10.75;8.20;;;;;;;23.14;55.87;101030.66;20630576;28;20150;-73
2022/10/11 22:25:13;;;;;;;11.13;8.13;;;;;;;23.14;55.72;101031.53;20634111;28;20056;-73
2022/10/11 22:35:14;;;;;;;10.07;7.70;;;;;;;23.14;55.65;101036.81;20627890;28;20092;-74
2022/10/11 22:45:14;;;;;;;9.88;8.10;;;;;;;23.14;55.54;101041.25;20625130;28;20049;-74
2022/10/11 22:55:15;;;;;;;10.27;7.93;;;;;;;23.12;55.57;101037.84;20628982;28;20121;-74
2022/10/11 23:05:15;;;;;;;9.85;7.75;;;;;;;23.11;55.60;101044.94;20628367;28;20050;-73
2022/10/11 23:15:16;;;;;;;9.75;7.75;;;;;;;23.09;55.53;101046.03;20624672;28;20551;-73
2022/10/11 23:25:16;;;;;;;9.43;7.60;;;;;;;23.09;55.74;101052.13;20633336;28;20513;-74
2022/10/11 23:35:18;;;;;;;8.15;7.05;;;;;;;23.08;56.07;101053.09;20625950;28;20658;-73
2022/10/11 23:45:18;;;;;;;8.80;7.00;;;;;;;23.07;56.04;101061.16;20627889;28;20038;-73
2022/10/11 23:55:18;;;;;;;9.60;7.60;;;;;;;23.05;55.94;101065.72;20632106;28;20046;-73
